Time;durP1;ratioP1;P1;durP2;ratioP2;P2;SDS_P1;SDS_P2;PMS_P1;PMS_P2;Temp;Humidity;BMP_temperature;BMP_pressure;BME280_temperature;BME280_humidity;BME280_pressure;Samples;Min_cycle;Max_cycle;Signal;HPM_P1;HPM_P2
2022/11/10 04:32:21;;;;;;;;;6.50;4.00;;;;;18.09;57.10;101994.63;5075820;27;45780;-75
2022/11/10 04:34:47;;;;;;;;;3.50;3.50;;;;;18.22;57.14;102008.97;5068518;28;45501;-75
2022/11/10 04:37:12;;;;;;;;;5.00;3.50;;;;;18.46;57.49;102007.41;5073925;27;45446;-76
2022/11/10 04:39:37;;;;;;;;;4.00;4.00;;;;;18.72;57.30;102004.78;5063713;28;45548;-76
2022/11/10 04:42:03;;;;;;;;;3.00;3.00;;;;;19.02;56.66;102015.25;5070223;28;47343;-76
2022/11/10 04:44:28;;;;;;;;;2.00;2.00;;;;;19.33;56.15;102007.72;5061677;28;45516;-77
2022/11/10 04:46:53;;;;;;;;;4.00;4.00;;;;;19.64;55.88;102007.34;5060263;28;45498;-76
2022/11/10 04:49:19;;;;;;;;;5.00;2.75;;;;;19.94;55.44;102011.44;5056210;27;45622;-77
2022/11/10 04:51:44;;;;;;;;;5.00;3.00;;;;;20.22;54.79;102013.94;5052886;28;54333;-77
2022/11/10 04:54:10;;;;;;;;;4.33;4.00;;;;;20.49;54.33;102012.84;5050517;28;53494;-76
2022/11/10 04:56:36;;;;;;;;;4.33;3.00;;;;;20.76;54.41;102019.78;5050992;28;45379;-74
2022/11/10 04:59:01;;;;;;;;;3.00;3.00;;;;;20.96;54.06;102012.00;5050699;28;45423;-75
2022/11/10 05:01:27;;;;;;;;;3.67;2.67;;;;;21.16;53.65;102021.22;5054408;28;46049;-76
2022/11/10 05:03:54;;;;;;;;;3.00;3.00;;;;;21.35;53.50;102033.25;5054659;28;45311;-76
2022/11/10 05:06:19;;;;;;;;;3.00;3.00;;;;;21.52;52.57;102031.91;5061809;27;45406;-74
2022/11/10 05:08:45;;;;;;;;;3.00;3.00;;;;;21.69;52.94;102038.63;5054373;28;45508;-73
2022/11/10 05:11:11;;;;;;;;;4.00;4.00;;;;;21.83;52.19;102034.84;5053956;27;46195;-73
2022/11/10 05:13:37;;;;;;;;;4.33;4.00;;;;;21.95;52.63;102039.22;5050655;28;45879;-76
2022/11/10 05:16:02;;;;;;;;;3.67;3.67;;;;;22.12;52.23;102037.00;5059063;28;45789;-71
2022/11/10 05:18:28;;;;;;;;;3.00;3.00;;;;;22.28;52.02;102055.50;5060597;28;45406;-71
2022/11/10 05:20:53;;;;;;;;;5.00;4.00;;;;;22.42;51.32;102051.63;5050677;28;45524;-72
2022/11/10 05:23:38;;;;;;;;;4.67;3.33;;;;;22.54;51.27;102051.59;5056030;27;45432;-71
2022/11/10 05:26:05;;;;;;;;;2.67;2.67;;;;;22.61;50.96;102058.22;5062330;27;45477;-74
2022/11/10 05:28:30;;;;;;;;;4.00;4.00;;;;;22.71;50.74;102066.41;5068158;28;45419;-74
2022/11/10 05:30:56;;;;;;;;;3.00;3.00;;;;;22.81;50.82;102069.19;5055533;28;55692;-75
2022/11/10 05:33:21;;;;;;;;;4.33;4.33;;;;;22.90;50.89;102066.53;5054964;28;45289;-75
2022/11/10 05:35:48;;;;;;;;;3.00;3.00;;;;;23.01;50.28;102071.03;5050661;28;45310;-75
2022/11/10 05:38:14;;;;;;;;;3.00;3.00;;;;;23.13;50.50;102076.38;5057673;28;45362;-74
2022/11/10 05:40:39;;;;;;;;;4.00;4.00;;;;;23.24;50.45;102076.28;5050650;28;45473;-75
2022/11/10 05:43:05;;;;;;;;;3.00;3.00;;;;;23.38;50.02;102077.81;5060596;27;45435;-74
2022/11/10 05:45:30;;;;;;;;;3.67;3.67;;;;;23.50;49.93;102083.16;5055996;28;49036;-72
2022/11/10 05:47:56;;;;;;;;;3.33;3.00;;;;;23.62;49.92;102087.47;5056759;28;45655;-74
2022/11/10 05:50:22;;;;;;;;;3.67;3.67;;;;;23.76;49.57;102085.38;5056937;28;46034;-74
2022/11/10 05:52:50;;;;;;;;;6.00;4.00;;;;;23.90;49.29;102094.97;5054741;28;45543;-73
2022/11/10 05:55:18;;;;;;;;;4.00;4.00;;;;;24.01;49.50;102096.72;5055883;28;45353;-74
2022/11/10 05:57:45;;;;;;;;;3.00;3.00;;;;;24.11;48.78;102105.75;5055909;28;45221;-73
2022/11/10 06:00:12;;;;;;;;;4.00;4.00;;;;;24.18;49.06;102104.22;5049103;28;45805;-74
2022/11/10 06:02:37;;;;;;;;;4.00;4.00;;;;;24.24;48.68;102105.53;5056312;28;45442;-75
2022/11/10 06:05:03;;;;;;;;;3.00;3.00;;;;;24.30;48.30;102104.09;5056363;28;45719;-76
2022/11/10 06:07:29;;;;;;;;;2.00;2.00;;;;;24.35;48.71;102101.81;5054907;28;45476;-76
2022/11/10 06:09:54;;;;;;;;;2.67;2.67;;;;;24.38;48.22;102098.81;5055287;28;46023;-74
2022/11/10 06:12:20;;;;;;;;;3.67;3.67;;;;;24.39;48.00;102111.38;5052055;28;45594;-77
2022/11/10 06:14:46;;;;;;;;;4.00;3.67;;;;;24.42;47.84;102116.53;5052723;28;45509;-77
2022/11/10 06:17:11;;;;;;;;;4.00;4.00;;;;;24.42;47.43;102104.81;5068414;27;45509;-76
2022/11/10 06:19:37;;;;;;;;;3.00;3.00;;;;;24.44;47.83;102116.41;5049332;28;45498;-76
2022/11/10 06:22:02;;;;;;;;;4.00;4.00;;;;;24.45;47.39;102115.41;5053882;28;55685;-76
2022/11/10 06:24:28;;;;;;;;;4.00;4.00;;;;;24.51;47.57;102108.53;5055609;28;45444;-76
2022/11/10 06:26:53;;;;;;;;;3.33;3.33;;;;;24.58;47.19;102106.97;5048513;28;45453;-76
2022/11/10 06:29:18;;;;;;;;;3.00;3.00;;;;;24.63;47.16;102122.81;5056486;28;53307;-77
2022/11/10 06:31:43;;;;;;;;;4.33;4.33;;;;;24.66;46.45;102117.97;5050039;28;45694;-74
2022/11/10 06:34:09;;;;;;;;;3.00;3.00;;;;;24.69;45.83;102123.09;5052785;28;48377;-77
2022/11/10 06:36:34;;;;;;;;;3.00;3.00;;;;;24.66;46.07;102119.81;5044760;28;45424;-75
2022/11/10 06:38:59;;;;;;;;;4.33;4.33;;;;;24.66;45.80;102125.25;5049229;28;46982;-75
2022/11/10 06:41:25;;;;;;;;;2.33;2.33;;;;;24.68;46.05;102131.41;5048313;28;45407;-76
2022/11/10 06:43:50;;;;;;;;;4.00;4.00;;;;;24.68;46.24;102129.53;5053458;28;45552;-75
2022/11/10 06:46:15;;;;;;;;;3.00;3.00;;;;;24.72;45.68;102135.53;5050710;28;45355;-75
2022/11/10 06:48:41;;;;;;;;;4.00;2.00;;;;;24.76;46.01;102150.53;5054755;28;45863;-75
2022/11/10 06:51:06;;;;;;;;;2.33;2.00;;;;;24.78;45.90;102151.28;5051455;28;48590;-75
2022/11/10 06:53:31;;;;;;;;;3.33;3.33;;;;;24.79;46.12;102152.09;5054631;28;48048;-74
2022/11/10 06:55:57;;;;;;;;;4.00;3.00;;;;;24.81;45.89;102163.69;5042651;28;45698;-75
2022/11/10 06:58:22;;;;;;;;;4.33;4.33;;;;;24.81;46.17;102172.69;5047201;28;47145;-75
2022/11/10 07:00:47;;;;;;;;;3.67;2.00;;;;;24.83;45.82;102180.72;5053599;28;45526;-75
2022/11/10 07:03:14;;;;;;;;;5.00;4.00;;;;;24.84;45.83;102177.00;5052421;28;45386;-75
2022/11/10 07:05:39;;;;;;;;;4.00;2.67;;;;;24.85;46.04;102178.75;5049935;28;45534;-74
2022/11/10 07:08:14;;;;;;;;;6.00;4.67;;;;;24.88;45.23;102180.31;5055255;28;46058;-75
2022/11/10 07:10:41;;;;;;;;;5.67;4.00;;;;;24.84;44.71;102179.72;5052638;28;45812;-75
2022/11/10 07:13:08;;;;;;;;;6.00;4.00;;;;;24.78;45.11;102186.56;5042714;28;45396;-75
2022/11/10 07:15:33;;;;;;;;;6.67;5.00;;;;;24.76;45.07;102183.13;5037785;28;45685;-75
2022/11/10 07:18:01;;;;;;;;;5.67;5.00;;;;;24.80;45.11;102200.84;5052947;28;47477;-75
2022/11/10 07:20:27;;;;;;;;;5.67;5.00;;;;;24.83;44.97;102192.47;5064793;28;45435;-75
2022/11/10 07:23:00;;;;;;;;;8.33;5.67;;;;;24.89;44.86;102211.91;5051683;28;45399;-75
2022/11/10 07:25:26;;;;;;;;;6.00;6.00;;;;;24.91;44.99;102208.03;5044883;28;45572;-75
2022/11/10 07:27:58;;;;;;;;;5.67;5.67;;;;;24.93;45.20;102216.88;5049209;28;46299;-74
2022/11/10 07:30:25;;;;;;;;;7.00;4.33;;;;;24.94;45.18;102210.47;5051713;28;45935;-75
2022/11/10 07:32:58;;;;;;;;;7.00;5.33;;;;;24.96;44.86;102224.75;5052684;28;45406;-74
2022/11/10 07:35:24;;;;;;;;;3.67;3.67;;;;;24.97;45.20;102231.06;5047649;28;45904;-75
2022/11/10 07:37:49;;;;;;;;;4.67;4.00;;;;;24.96;45.31;102234.75;5039127;28;47117;-74
2022/11/10 07:40:15;;;;;;;;;3.67;3.67;;;;;24.95;45.17;102241.19;5048896;28;51837;-75
2022/11/10 07:42:40;;;;;;;;;3.00;3.00;;;;;24.91;44.45;102237.91;5054576;28;45466;-74
2022/11/10 07:45:06;;;;;;;;;5.67;4.00;;;;;24.88;44.44;102246.34;5050212;28;45794;-75
2022/11/10 07:47:31;;;;;;;;;2.33;2.33;;;;;24.88;45.18;102249.03;5048780;28;45985;-74
2022/11/10 07:49:57;;;;;;;;;8.67;4.33;;;;;24.88;44.87;102249.03;5048098;28;45532;-75
2022/11/10 07:52:22;;;;;;;;;6.00;4.00;;;;;24.90;45.16;102252.50;5042402;28;45594;-75
2022/11/10 07:54:47;;;;;;;;;4.33;4.33;;;;;24.94;44.86;102251.22;5045494;28;45281;-76
2022/11/10 07:57:13;;;;;;;;;5.67;5.00;;;;;24.99;45.35;102261.66;5039006;28;45436;-76
2022/11/10 07:59:38;;;;;;;;;4.33;2.00;;;;;25.07;44.95;102267.22;5050557;28;45434;-73
2022/11/10 08:02:04;;;;;;;;;6.00;6.00;;;;;25.10;44.86;102275.06;5038956;28;45476;-75
2022/11/10 08:04:29;;;;;;;;;7.00;5.33;;;;;25.11;44.93;102282.25;5051599;28;45600;-75
2022/11/10 08:06:55;;;;;;;;;5.33;4.00;;;;;25.13;44.71;102291.09;5051151;28;45650;-75
2022/11/10 08:09:20;;;;;;;;;4.33;3.33;;;;;25.13;44.77;102282.94;5053873;28;45851;-75
2022/11/10 08:11:45;;;;;;;;;6.00;3.33;;;;;25.15;44.79;102293.69;5045504;28;45454;-74
2022/11/10 08:14:11;;;;;;;;;4.00;4.00;;;;;25.15;44.70;102300.97;5041014;28;52795;-74
2022/11/10 08:16:36;;;;;;;;;2.33;2.33;;;;;25.15;45.10;102309.13;5045279;28;46041;-74
2022/11/10 08:19:01;;;;;;;;;5.33;4.67;;;;;25.12;45.17;102308.41;5052995;28;65413;-75
2022/11/10 08:21:27;;;;;;;;;5.00;3.00;;;;;25.13;44.86;102325.56;5051807;28;45321;-75
2022/11/10 08:23:52;;;;;;;;;3.00;3.00;;;;;25.12;45.24;102312.97;5039186;28;45419;-75
2022/11/10 08:26:17;;;;;;;;;3.00;3.00;;;;;25.11;45.00;102323.00;5035970;28;46460;-73
2022/11/10 08:28:43;;;;;;;;;4.00;3.00;;;;;25.10;45.41;102328.56;5049143;28;45528;-75
2022/11/10 08:31:08;;;;;;;;;4.00;4.00;;;;;25.10;45.47;102336.72;5047757;28;45870;-75
2022/11/10 08:33:33;;;;;;;;;7.00;5.00;;;;;25.08;45.46;102333.25;5047643;28;45717;-76
2022/11/10 08:36:00;;;;;;;;;3.00;3.00;;;;;25.06;45.66;102338.00;5051585;28;47173;-76
2022/11/10 08:38:25;;;;;;;;;6.67;5.00;;;;;25.07;45.39;102334.28;5045442;28;45483;-75
2022/11/10 08:40:51;;;;;;;;;4.00;4.00;;;;;25.04;45.68;102338.13;5053748;28;47742;-75
2022/11/10 08:43:17;;;;;;;;;4.00;4.00;;;;;25.03;45.63;102336.41;5052975;28;54097;-73
2022/11/10 08:45:43;;;;;;;;;3.67;3.67;;;;;25.04;45.95;102339.97;5053401;28;46180;-74
2022/11/10 08:48:17;;;;;;;;;4.67;2.67;;;;;25.02;45.92;102342.84;5047796;28;45562;-74
2022/11/10 08:50:43;;;;;;;;;3.33;2.67;;;;;25.03;45.46;102340.97;5047468;28;45540;-74
2022/11/10 08:53:11;;;;;;;;;2.67;2.00;;;;;25.02;45.81;102344.69;5050550;28;45539;-74
2022/11/10 08:55:37;;;;;;;;;3.67;2.00;;;;;25.03;45.62;102335.56;5040239;28;45490;-73
2022/11/10 08:58:04;;;;;;;;;2.00;2.00;;;;;25.02;45.61;102334.72;5035293;28;45377;-74
2022/11/10 09:00:31;;;;;;;;;3.00;3.00;;;;;25.05;45.74;102348.00;5047156;28;45335;-74
2022/11/10 09:03:04;;;;;;;;;3.00;2.33;;;;;25.06;45.89;102344.28;5040950;28;45353;-76
2022/11/10 09:05:29;;;;;;;;;2.67;2.67;;;;;25.07;45.59;102350.56;5037974;28;45854;-76
2022/11/10 09:07:54;;;;;;;;;3.00;3.00;;;;;25.06;45.76;102363.28;5045928;28;45522;-75
2022/11/10 09:10:21;;;;;;;;;4.33;3.00;;;;;25.06;45.77;102373.31;5053013;28;45682;-76
2022/11/10 09:12:46;;;;;;;;;2.00;2.00;;;;;25.06;45.60;102371.44;5046048;28;45691;-76
2022/11/10 09:15:12;;;;;;;;;4.00;2.67;;;;;25.07;45.89;102367.75;5053322;28;45427;-76
2022/11/10 09:17:39;;;;;;;;;2.00;2.00;;;;;25.08;45.51;102374.00;5043327;28;45454;-75
2022/11/10 09:20:07;;;;;;;;;6.00;4.00;;;;;25.06;45.77;102370.59;5050680;28;45560;-76
2022/11/10 09:22:36;;;;;;;;;3.33;2.67;;;;;25.07;45.83;102383.16;5057202;28;45524;-75
2022/11/10 09:25:02;;;;;;;;;3.67;2.67;;;;;25.06;45.84;102385.00;5055791;28;45352;-76
2022/11/10 09:27:27;;;;;;;;;3.67;3.67;;;;;25.06;45.76;102381.47;5050397;28;45470;-73
2022/11/10 09:29:52;;;;;;;;;2.33;2.33;;;;;25.06;45.51;102393.16;5047783;28;45500;-74
2022/11/10 09:32:18;;;;;;;;;4.00;3.00;;;;;25.03;45.83;102390.75;5051486;28;55216;-74
2022/11/10 09:34:43;;;;;;;;;2.67;2.67;;;;;25.03;45.84;102398.91;5050360;28;46183;-76
2022/11/10 09:37:08;;;;;;;;;3.33;3.33;;;;;25.00;45.92;102394.59;5052016;28;45894;-77
2022/11/10 09:39:34;;;;;;;;;3.00;3.00;;;;;24.99;45.71;102395.59;5056720;28;45428;-77
2022/11/10 09:41:59;;;;;;;;;2.00;2.00;;;;;24.98;45.80;102398.47;5054658;28;45384;-77
2022/11/10 09:44:58;;;;;;;;;3.00;2.00;;;;;24.96;45.97;102400.44;5038844;28;46120;-75
2022/11/10 09:47:33;;;;;;;;;1.67;1.67;;;;;24.97;46.17;102413.88;5045865;28;45483;-75
2022/11/10 09:50:00;;;;;;;;;5.67;3.00;;;;;24.95;45.59;102405.03;5047139;28;45315;-74
2022/11/10 09:52:30;;;;;;;;;3.00;2.00;;;;;24.97;45.99;102413.88;5042250;28;45697;-74
2022/11/10 09:55:02;;;;;;;;;2.00;2.00;;;;;24.97;45.93;102419.31;5054948;28;46180;-76
2022/11/10 09:57:28;;;;;;;;;3.67;3.67;;;;;24.97;45.87;102421.19;5044938;28;45763;-75
2022/11/10 09:59:55;;;;;;;;;2.00;2.00;;;;;24.96;46.10;102420.31;5040949;28;45522;-76
2022/11/10 10:02:29;;;;;;;;;4.00;4.00;;;;;24.97;44.31;102418.47;5054349;28;45329;-75
2022/11/10 10:05:22;;;;;;;;;2.00;2.00;;;;;25.01;43.73;102414.47;5042440;28;47147;-76
2022/11/10 10:08:04;;;;;;;;;2.00;2.00;;;;;24.95;43.36;102406.88;5048068;28;45427;-76
2022/11/10 10:10:48;;;;;;;;;4.67;2.67;;;;;24.88;43.52;102417.41;5055726;28;45750;-75
2022/11/10 10:13:13;;;;;;;;;1.67;1.67;;;;;24.77;43.58;102409.34;5053547;28;45490;-77
2022/11/10 10:15:47;;;;;;;;;5.00;3.00;;;;;24.69;43.95;102418.19;5048936;28;46025;-74
2022/11/10 10:18:37;;;;;;;;;3.33;3.33;;;;;24.63;43.93;102422.28;5041868;28;45483;-75
2022/11/10 10:21:33;;;;;;;;;2.67;2.67;;;;;24.56;44.34;102419.25;5055454;28;45516;-75
2022/11/10 10:24:01;;;;;;;;;4.00;4.00;;;;;24.55;44.57;102432.94;5056016;28;45533;-78
2022/11/10 10:26:31;;;;;;;;;3.67;3.67;;;;;24.53;44.71;102424.97;5057788;28;45304;-74
2022/11/10 10:29:04;;;;;;;;;4.33;3.00;;;;;24.54;44.57;102428.53;5055251;28;45434;-74
2022/11/10 10:31:42;;;;;;;;;4.00;3.00;;;;;24.54;45.08;102432.13;5040408;28;45477;-75
2022/11/10 10:34:20;;;;;;;;;2.33;2.33;;;;;24.56;44.99;102446.41;5053173;28;45525;-74
2022/11/10 10:36:46;;;;;;;;;3.00;3.00;;;;;24.60;44.49;102447.84;5055023;28;45509;-76
2022/11/10 10:39:16;;;;;;;;;2.67;2.67;;;;;24.66;45.06;102454.59;5054890;28;45537;-77
2022/11/10 10:41:44;;;;;;;;;4.67;2.67;;;;;24.74;45.12;102456.66;5055602;28;45399;-76
2022/11/10 10:44:16;;;;;;;;;2.33;2.33;;;;;24.82;45.23;102462.25;5055964;28;45426;-75
2022/11/10 10:46:45;;;;;;;;;4.00;2.00;;;;;24.86;45.06;102466.44;5052891;28;45500;-76
2022/11/10 10:49:25;;;;;;;;;5.00;3.33;;;;;24.90;44.39;102474.31;5054140;28;45922;-74
2022/11/10 10:52:09;;;;;;;;;2.67;2.67;;;;;24.90;44.40;102477.03;5053600;28;45524;-75
2022/11/10 10:54:37;;;;;;;;;2.00;2.00;;;;;24.91;44.67;102482.34;5055673;28;45309;-77
2022/11/10 10:57:19;;;;;;;;;3.67;3.00;;;;;24.92;44.95;102489.47;5052562;28;46181;-77
2022/11/10 10:59:44;;;;;;;;;3.00;3.00;;;;;24.92;44.68;102492.19;5054017;28;45606;-77
2022/11/10 11:02:28;;;;;;;;;4.00;3.00;;;;;24.93;44.54;102488.47;5055112;28;45366;-76
2022/11/10 11:05:12;;;;;;;;;4.00;4.00;;;;;24.94;44.78;102483.91;5046094;28;45319;-76
2022/11/10 11:07:37;;;;;;;;;3.67;2.33;;;;;24.96;43.87;102481.91;5040167;28;45501;-75
2022/11/10 11:10:17;;;;;;;;;4.00;4.00;;;;;24.96;42.66;102474.63;5049253;28;45522;-75
2022/11/10 11:12:42;;;;;;;;;3.33;3.33;;;;;24.92;42.66;102473.19;5051005;28;45522;-75
2022/11/10 11:15:17;;;;;;;;;2.67;2.67;;;;;24.85;42.57;102469.31;5053282;28;45894;-76
2022/11/10 11:17:57;;;;;;;;;4.00;4.00;;;;;24.78;42.71;102457.22;5035634;28;45501;-75
2022/11/10 11:20:45;;;;;;;;;3.00;3.00;;;;;24.74;42.79;102464.78;5040082;28;45582;-75
2022/11/10 11:23:25;;;;;;;;;2.67;2.67;;;;;24.64;42.45;102461.16;5039544;28;45498;-76
2022/11/10 11:25:58;;;;;;;;;2.67;2.67;;;;;24.53;42.87;102456.66;5042392;28;45373;-76
2022/11/10 11:28:39;;;;;;;;;6.00;4.33;;;;;24.41;42.87;102453.16;5049169;28;45726;-76
2022/11/10 11:31:13;;;;;;;;;4.67;4.33;;;;;24.30;42.83;102464.94;5044725;28;45477;-76
2022/11/10 11:34:03;;;;;;;;;4.00;3.33;;;;;24.23;43.07;102469.19;5054492;28;45310;-76
2022/11/10 11:36:37;;;;;;;;;5.33;4.67;;;;;24.15;42.89;102462.56;5054480;28;45482;-76
2022/11/10 11:39:19;;;;;;;;;5.67;5.67;;;;;24.10;43.16;102458.53;5050352;28;46808;-76
2022/11/10 11:41:47;;;;;;;;;5.33;5.33;;;;;24.06;43.00;102471.44;5045322;28;45461;-76
2022/11/10 11:44:38;;;;;;;;;4.67;4.67;;;;;24.02;43.37;102465.44;5052915;28;45776;-76
2022/11/10 11:47:03;;;;;;;;;6.33;5.33;;;;;23.98;43.20;102466.69;5045388;28;45471;-74
2022/11/10 11:49:46;;;;;;;;;6.67;4.00;;;;;23.94;43.24;102468.78;5047475;28;45450;-75
2022/11/10 11:52:37;;;;;;;;;5.33;5.33;;;;;23.89;43.46;102460.19;5048645;28;45341;-76
2022/11/10 11:55:24;;;;;;;;;6.00;6.00;;;;;23.87;43.75;102467.56;5048224;28;45748;-75
2022/11/10 11:58:14;;;;;;;;;6.00;6.00;;;;;23.87;43.75;102472.16;5050063;28;45427;-76
2022/11/10 12:01:02;;;;;;;;;3.00;2.00;;;;;23.88;44.06;102465.75;5042711;28;45781;-76
2022/11/10 12:04:09;;;;;;;;;4.67;4.67;;;;;23.90;44.00;102463.75;5050557;28;45410;-73
2022/11/10 12:06:56;;;;;;;;;5.67;4.00;;;;;23.91;44.11;102465.50;5039941;28;45451;-73
2022/11/10 12:09:40;;;;;;;;;6.00;6.00;;;;;23.93;44.40;102467.09;5053074;28;45430;-73
2022/11/10 12:12:55;;;;;;;;;3.33;3.33;;;;;23.98;44.31;102473.97;5045400;28;45566;-74
2022/11/10 12:15:29;;;;;;;;;5.00;5.00;;;;;24.03;44.17;102467.16;5044923;28;46551;-72
2022/11/10 12:18:30;;;;;;;;;8.67;6.00;;;;;24.11;43.58;102461.09;5053501;28;45350;-72
2022/11/10 12:20:58;;;;;;;;;8.00;6.67;;;;;24.11;43.10;102458.38;5030388;28;45631;-73
2022/11/10 12:23:41;;;;;;;;;8.00;6.33;;;;;24.06;43.79;102455.16;5030245;28;45523;-72
2022/11/10 12:26:10;;;;;;;;;10.00;5.00;;;;;24.00;43.30;102461.13;5030614;28;45420;-72
2022/11/10 12:28:41;;;;;;;;;6.00;6.00;;;;;23.97;43.17;102456.81;5032017;28;45440;-72
2022/11/10 12:31:17;;;;;;;;;7.00;7.00;;;;;23.92;43.50;102448.22;5028011;28;45515;-72
2022/11/10 12:33:49;;;;;;;;;9.33;6.33;;;;;23.91;43.34;102446.50;5024176;28;45637;-72
2022/11/10 12:36:18;;;;;;;;;6.67;6.67;;;;;23.89;43.50;102445.75;5024796;28;45552;-71
2022/11/10 12:38:53;;;;;;;;;7.00;6.33;;;;;23.83;43.37;102436.31;5024198;28;45429;-73
2022/11/10 12:41:20;;;;;;;;;5.67;5.67;;;;;23.82;43.42;102451.72;5029272;28;45685;-72
2022/11/10 12:44:23;;;;;;;;;5.00;5.00;;;;;23.81;43.32;102457.25;5029645;28;47447;-73
2022/11/10 12:46:54;;;;;;;;;5.33;5.33;;;;;23.79;43.83;102457.38;5029660;28;45504;-74
2022/11/10 12:49:35;;;;;;;;;7.33;6.00;;;;;23.77;43.94;102451.25;5029594;28;45697;-73
2022/11/10 12:52:22;;;;;;;;;7.33;6.00;;;;;23.75;43.96;102453.19;5027736;28;45413;-74
2022/11/10 12:54:48;;;;;;;;;5.00;5.00;;;;;23.76;44.29;102449.53;5029063;28;45606;-74
2022/11/10 12:57:19;;;;;;;;;5.67;5.00;;;;;23.76;44.24;102454.94;5044376;28;45392;-74
2022/11/10 12:59:59;;;;;;;;;5.00;5.00;;;;;23.80;44.27;102459.09;5054072;28;45391;-75
2022/11/10 13:02:39;;;;;;;;;5.00;4.00;;;;;23.82;44.36;102458.97;5048059;28;45571;-74
2022/11/10 13:05:13;;;;;;;;;6.00;6.00;;;;;23.86;44.32;102452.31;5055237;28;45986;-73
2022/11/10 13:07:43;;;;;;;;;4.00;4.00;;;;;23.89;44.51;102449.34;5057088;28;45655;-73
2022/11/10 13:10:34;;;;;;;;;7.00;6.00;;;;;23.94;44.53;102457.06;5052836;28;45415;-74
2022/11/10 13:13:03;;;;;;;;;4.00;4.00;;;;;23.97;44.61;102455.94;5056477;28;45383;-74
2022/11/10 13:15:34;;;;;;;;;5.67;5.67;;;;;23.99;44.87;102454.00;5055256;28;46326;-75
2022/11/10 13:17:59;;;;;;;;;6.67;6.00;;;;;23.99;44.80;102449.41;5056614;28;45654;-74
2022/11/10 13:20:44;;;;;;;;;4.00;4.00;;;;;24.02;44.92;102457.28;5055386;28;45517;-74
2022/11/10 13:23:29;;;;;;;;;7.00;7.00;;;;;24.04;44.98;102452.59;5056870;28;45515;-73
2022/11/10 13:26:39;;;;;;;;;5.00;5.00;;;;;24.05;44.94;102451.63;5053226;28;45548;-74
2022/11/10 13:29:33;;;;;;;;;9.33;5.00;;;;;24.06;45.03;102453.34;5049764;28;45393;-74
2022/11/10 13:32:36;;;;;;;;;6.33;5.00;;;;;24.05;45.02;102456.16;5056268;28;45391;-74
2022/11/10 13:35:26;;;;;;;;;4.00;3.00;;;;;24.06;45.19;102463.31;5055918;28;45424;-74
2022/11/10 13:37:52;;;;;;;;;5.00;5.00;;;;;24.05;45.14;102456.16;5053411;28;47021;-74
2022/11/10 13:40:17;;;;;;;;;4.00;4.00;;;;;24.07;45.13;102465.03;5055797;28;45376;-74
2022/11/10 13:42:57;;;;;;;;;8.00;6.00;;;;;24.08;45.41;102474.91;5056571;28;45489;-73
2022/11/10 13:45:30;;;;;;;;;5.67;5.67;;;;;24.10;45.26;102482.94;5042650;28;45387;-73
2022/11/10 13:48:04;;;;;;;;;4.00;4.00;;;;;24.12;45.90;102478.25;5051632;28;45481;-74
2022/11/10 13:50:57;;;;;;;;;4.33;4.33;;;;;24.15;44.63;102473.41;5042783;28;46039;-74
2022/11/10 13:53:40;;;;;;;;;4.67;4.67;;;;;24.17;45.05;102474.16;5051896;28;45597;-74
2022/11/10 13:56:50;;;;;;;;;4.50;4.50;;;;;24.16;45.29;102472.41;5046659;28;45407;-76
2022/11/10 13:59:19;;;;;;;;;6.67;4.67;;;;;24.15;44.95;102472.56;5045471;28;46499;-75
2022/11/10 14:01:45;;;;;;;;;3.00;3.00;;;;;24.14;45.23;102466.28;5050628;28;45394;-75
2022/11/10 14:04:42;;;;;;;;;4.33;3.33;;;;;24.12;45.31;102460.13;5044059;28;45514;-75
2022/11/10 14:07:19;;;;;;;;;4.00;4.00;;;;;24.12;45.31;102467.41;5054358;28;45462;-73
2022/11/10 14:09:52;;;;;;;;;3.33;3.33;;;;;24.12;45.36;102464.69;5056212;28;46533;-73
2022/11/10 14:12:27;;;;;;;;;3.67;3.00;;;;;24.12;45.41;102467.41;5052927;28;45810;-74
2022/11/10 14:15:00;;;;;;;;;5.00;5.00;;;;;24.10;45.78;102475.66;5049971;28;45489;-73
2022/11/10 14:17:43;;;;;;;;;5.00;4.00;;;;;24.12;45.68;102483.66;5052645;28;45748;-74
2022/11/10 14:20:30;;;;;;;;;4.00;4.00;;;;;24.12;45.87;102478.25;5050612;28;45404;-75
2022/11/10 14:22:56;;;;;;;;;3.67;3.00;;;;;24.09;45.89;102479.38;5052555;28;46573;-75
2022/11/10 14:25:28;;;;;;;;;5.00;4.00;;;;;24.11;46.15;102495.53;5055536;28;45538;-75
2022/11/10 14:27:53;;;;;;;;;4.67;4.67;;;;;24.10;45.99;102502.78;5044152;28;45439;-75
2022/11/10 14:30:20;;;;;;;;;5.67;4.33;;;;;24.10;45.28;102501.94;5049498;28;55568;-74
2022/11/10 14:33:05;;;;;;;;;5.00;4.00;;;;;24.15;43.86;102510.53;5054743;28;45811;-74
2022/11/10 14:35:50;;;;;;;;;3.67;3.67;;;;;24.14;43.61;102515.09;5054429;28;45424;-73
2022/11/10 14:38:23;;;;;;;;;5.33;5.33;;;;;24.08;43.47;102521.84;5053584;28;45447;-74
2022/11/10 16:45:30;;;;;;;;;4.75;3.75;;;;;18.40;53.88;102522.19;5063099;27;45416;-74
2022/11/10 16:47:56;;;;;;;;;6.25;6.25;;;;;18.54;54.55;102524.94;5061476;28;45499;-77
2022/11/10 16:50:33;;;;;;;;;6.00;5.00;;;;;18.77;54.58;102517.31;5062314;27;45500;-77
2022/11/10 16:53:04;;;;;;;;;6.50;4.75;;;;;19.06;54.56;102514.66;5061679;28;45466;-77
2022/11/10 16:55:30;;;;;;;;;8.50;7.00;;;;;19.39;54.45;102518.03;5051916;27;45558;-74
2022/11/10 16:57:56;;;;;;;;;4.67;4.00;;;;;19.73;53.89;102528.44;5051199;28;45506;-74
2022/11/10 17:00:21;;;;;;;;;5.50;5.50;;;;;20.07;54.07;102537.03;5052309;28;45922;-74
2022/11/10 17:03:02;;;;;;;;;6.00;4.33;;;;;20.44;53.33;102532.84;5050691;27;45498;-75
2022/11/10 17:05:27;;;;;;;;;6.00;6.00;;;;;20.78;52.52;102535.91;5045832;28;46122;-78
2022/11/10 17:07:54;;;;;;;;;6.00;4.00;;;;;21.08;52.54;102542.84;5065348;28;45368;-76
2022/11/10 17:10:20;;;;;;;;;4.67;4.00;;;;;21.37;51.95;102545.31;5064718;28;45414;-77
2022/11/10 17:12:46;;;;;;;;;6.33;6.33;;;;;21.65;51.72;102546.03;5058585;28;45561;-79
2022/11/10 17:15:14;;;;;;;;;6.00;4.00;;;;;21.90;51.40;102551.50;5063971;27;46331;-78
2022/11/10 17:17:42;;;;;;;;;4.33;4.33;;;;;22.14;51.09;102548.78;5059897;28;45672;-76
2022/11/10 17:20:16;;;;;;;;;5.00;5.00;;;;;22.37;50.87;102559.72;5068659;28;45510;-76
2022/11/10 17:22:41;;;;;;;;;3.67;3.67;;;;;22.55;50.15;102565.59;5063422;28;45592;-76
2022/11/10 17:25:17;;;;;;;;;3.33;3.33;;;;;22.74;49.74;102564.19;5069341;28;45424;-73
2022/11/10 17:27:42;;;;;;;;;4.00;4.00;;;;;22.88;49.53;102577.50;5061365;28;45465;-75
2022/11/10 17:30:09;;;;;;;;;5.67;5.00;;;;;23.02;49.38;102581.81;5062021;28;45443;-76
2022/11/10 17:32:34;;;;;;;;;5.67;4.33;;;;;23.12;49.37;102576.56;5062301;27;45561;-74
2022/11/10 17:34:59;;;;;;;;;5.00;5.00;;;;;23.24;49.13;102581.97;5051498;27;52167;-75
2022/11/10 17:37:24;;;;;;;;;5.00;4.00;;;;;23.32;48.93;102587.66;5064771;28;53051;-75
2022/11/10 17:39:50;;;;;;;;;4.33;3.00;;;;;23.39;49.02;102591.63;5049214;28;57668;-75
2022/11/10 17:42:15;;;;;;;;;5.67;4.00;;;;;23.47;48.68;102596.44;5051591;28;45439;-75
2022/11/10 17:44:40;;;;;;;;;4.67;4.67;;;;;23.53;48.70;102604.06;5051921;28;45536;-76
2022/11/10 17:47:05;;;;;;;;;4.00;3.00;;;;;23.63;47.25;102604.16;5056134;28;61861;-77
2022/11/10 17:49:31;;;;;;;;;3.00;3.00;;;;;23.68;46.42;102606.53;5052344;28;50373;-78
2022/11/10 17:51:56;;;;;;;;;4.33;4.33;;;;;23.68;46.45;102607.41;5050681;28;46226;-76
2022/11/10 17:54:22;;;;;;;;;4.00;4.00;;;;;23.70;46.61;102612.66;5049660;28;45423;-77
2022/11/10 17:56:47;;;;;;;;;6.00;5.00;;;;;23.72;46.84;102609.84;5039452;28;45438;-76
2022/11/10 17:59:12;;;;;;;;;5.67;5.00;;;;;23.76;46.57;102614.91;5040154;28;46642;-76
2022/11/10 18:01:37;;;;;;;;;5.00;5.00;;;;;23.84;46.76;102600.72;5040104;28;52110;-78
2022/11/10 18:04:03;;;;;;;;;6.33;5.67;;;;;23.94;46.66;102608.94;5042061;28;46171;-77
2022/11/10 18:06:29;;;;;;;;;4.67;4.00;;;;;24.05;46.32;102606.22;5037223;28;47900;-74
2022/11/10 18:08:56;;;;;;;;;7.33;4.67;;;;;24.15;46.71;102605.50;5038249;28;45500;-74
2022/11/10 18:11:21;;;;;;;;;4.00;4.00;;;;;24.22;46.38;102606.69;5041149;28;45479;-74
2022/11/10 18:13:46;;;;;;;;;5.00;5.00;;;;;24.31;46.37;102610.47;5041829;28;45495;-75
2022/11/10 18:16:13;;;;;;;;;4.00;3.33;;;;;24.39;46.11;102616.13;5034141;28;45328;-74
